Nearby METAR Reports

 

KCOS - Colorado Springs, Colorado, USA
Distance from station: S 6mi, 9km
Updated: 07/21/2018 10:54am
Few Clouds
Few Clouds
 Wind from SSW
Wind: SSW 9 mph , 15 km/h
Temperature: 88°F , 31°C
Dew Point: 50°F , 10°C
Humidity: 27%
Barometer: 30.24 inHg , 1024 hPa
Clouds: Few Clouds
Visibility: 10 miles , 16 km
Cloud details: Few Clouds 9000 ft
Few Clouds 17000 ft
2018/07/21 16:54 KCOS 211654Z 20008KT 10SM FEW090 FEW170 31/10 A3024 RMK AO2 SLP131 T03060100
KAFF - Usaf Academy/Cos, Colorado, USA
Distance from station: NW 7mi, 12km
Updated: 07/21/2018 10:58am
Clear
Clear
 Wind from SE
Wind: SE 8 mph , 13 km/h
Temperature: 88°F , 31°C
Dew Point: 41°F , 5°C
Humidity: 19%
Barometer: 30.25 inHg , 1024.4 hPa
Clouds: Clear
Visibility: 10 miles , 16 km
2018/07/21 16:58 KAFF 211658Z AUTO 14007KT 10SM CLR 31/05 A3025 RMK AO2 SLP135 T03110047
 
KFLY - Co Spngs Meadow, Colorado, USA
Distance from station: ENE 8mi, 13km
Updated: 07/21/2018 11:15am
Clear
Clear
 Wind from SSE
Wind: SSE 9 mph , 15 km/h, Gust: 16 mph , 26 km/h
Temperature: 86°F , 30°C
Dew Point: 39°F , 4°C
Humidity: 19%
Barometer: 30.30 inHg , 1026.1 hPa
Clouds: Clear
Visibility: 10 miles , 16 km
2018/07/21 17:15 KFLY 211715Z AUTO 15008G14KT 10SM CLR 30/04 A3030 RMK AO2 T03040042
KFCS - Fort Carson, Colorado, USA
Distance from station: S 17mi, 27km
Updated: 07/21/2018 11:15am
Clear
Clear
 Wind from S
Wind: S 13 mph , 20 km/h
Temperature: 91°F , 33°C
Dew Point: 45°F , 7°C
Humidity: 20%
Barometer: 30.19 inHg , 1022.4 hPa
Clouds: Clear
Visibility: 10 miles , 16 km
2018/07/21 17:15 KFCS 211715Z AUTO 17011KT 10SM CLR 33/07 A3019 RMK AO2 WSHFT 13 SLP144 $
 
KMNH - Monument/Elbert, Colorado, USA
Distance from station: N 22mi, 35km
Updated: 07/21/2018 11:29am
Clear
Clear
 Wind from WNW
Wind: WNW 3 mph , 6 km/h
Temperature: 86°F , 30°C
Dew Point: 43°F , 6°C
Humidity: 22%
Barometer: 30.31 inHg , 1026.4 hPa
Clouds: Clear
Visibility: 10 miles , 16 km
2018/07/21 17:29 KMNH 211729Z AUTO 30003KT 10SM CLR 30/06 A3031 RMK AO2
K1V6 - Canon City, Colorado, USA
Distance from station: SSW 39mi, 62km
Updated: 07/14/2018 7:10pm
NOT Current
Clear
Clear
 Wind from E
Wind: E 15 mph , 24 km/h, Gust: 21 mph , 33 km/h
Temperature: 90°F , 32°C
Dew Point: 50°F , 10°C
Humidity: 26%
Barometer: 30.12 inHg , 1020 hPa
Clouds: Clear
Visibility: 10 miles , 16 km
2018/07/15 01:10 K1V6 150110Z AUTO 08013G18KT 10SM CLR 32/10 A3012 RMK AO2
 
KPUB - Pueblo, Colorado, USA
Distance from station: SSE 44mi, 71km
Updated: 07/21/2018 10:53am
Clear
Clear
 Wind from calm
Wind: Calm
Temperature: 91°F , 33°C
Dew Point: 48°F , 9°C
Humidity: 23%
Barometer: 30.12 inHg , 1020 hPa
Clouds: Clear
Visibility: 10 miles , 16 km
2018/07/21 16:53 KPUB 211653Z 00000KT 10SM CLR 33/09 A3012 RMK AO2 SLP116 T03280094
KAPA - Denver/Arapahoe, Colorado, USA
Distance from station: N 47mi, 75km
Updated: 07/21/2018 10:53am
Few Clouds
Few Clouds
 Wind from varies
Wind: varies 3 mph , 6 km/h
Temperature: 84°F , 29°C
Dew Point: 52°F , 11°C
Humidity: 33%
Barometer: 30.21 inHg , 1023 hPa
Clouds: Few Clouds
Visibility: 10 miles , 16 km
Cloud details: Few Clouds 10000 ft
Few Clouds 20000 ft
2018/07/21 16:53 KAPA 211653Z VRB03KT 10SM FEW100 FEW200 29/11 A3021 RMK AO2 SLP139 T02890106